This is the latest recevied weather packets stored in our database for station/object CA3DPI. If no packets are shown the sender has not sent any weather packets the latest 10 day(s).
| Time | Temp. | Humidity | Pressure | Rain* | Wind** | Luminosity | Snow |
|---|---|---|---|---|---|---|---|
| 1777210502 | 18.33° C | 41% | 1023.6 hPa | - | - | - | - |
| 1777209902 | 16.67° C | 43% | 1023.7 hPa | - | - | - | - |
| 1777209301 | 15.56° C | 44% | 1023.7 hPa | - | - | - | - |
| 1777208701 | 15° C | 44% | 1023.7 hPa | - | - | - | - |
| 1777208101 | 14.44° C | 46% | 1023.8 hPa | - | - | - | - |
| 1777207501 | 13.33° C | 47% | 1023.8 hPa | - | - | - | - |
| 1777206901 | 12.78° C | 45% | 1023.7 hPa | - | - | - | - |
| 1777206301 | 12.78° C | 45% | 1023.6 hPa | - | - | - | - |
| 1777205700 | 12.22° C | 48% | 1023.7 hPa | - | - | - | - |
| 1777205100 | 10.56° C | 49% | 1023.6 hPa | - | - | - | - |
| 1777204500 | 10° C | 51% | 1023.6 hPa | - | - | - | - |
| 1777203900 | 8.89° C | 53% | 1023.4 hPa | - | - | - | - |
| 1777203300 | 8.33° C | 54% | 1023.4 hPa | - | - | - | - |
| 1777202700 | 7.78° C | 56% | 1023.5 hPa | - | - | - | - |
| 1777202100 | 7.22° C | 56% | 1023.4 hPa | - | - | - | - |
| 1777201499 | 7.78° C | 53% | 1023.4 hPa | - | - | - | - |
| 1777200899 | 7.78° C | 53% | 1023.3 hPa | - | - | - | - |
| 1777200304 | 8.33° C | 52% | 1023.3 hPa | - | - | - | - |
| 1777199704 | 8.89° C | 53% | 1023.3 hPa | - | - | - | - |
| 1777199104 | 8.89° C | 54% | 1023.4 hPa | - | - | - | - |
| 1777198503 | 8.89° C | 52% | 1023.3 hPa | - | - | - | - |
| 1777197903 | 8.89° C | 53% | 1023.2 hPa | - | - | - | - |
| 1777197303 | 8.89° C | 54% | 1023.3 hPa | - | - | - | - |
| 1777196703 | 8.89° C | 53% | 1023.3 hPa | - | - | - | - |
| 1777196103 | 8.89° C | 53% | 1023.3 hPa | - | - | - | - |
* Rain since midnight (hover to see other rain measurements)
** Current wind speed in m/s (hover to see current wind gust speed)